sensor_id;sensor_type;location;lat;lon;timestamp;P1;durP1;ratioP1;P2;durP2;ratioP2
32455;SDS011;18912;43.270;27.942;2022-08-14T00:02:01;38.13;;;17.57;;
32455;SDS011;18912;43.270;27.942;2022-08-14T00:04:32;30.50;;;18.17;;
32455;SDS011;18912;43.270;27.942;2022-08-14T00:07:00;35.30;;;18.15;;
32455;SDS011;18912;43.270;27.942;2022-08-14T00:09:26;30.70;;;18.55;;
32455;SDS011;18912;43.270;27.942;2022-08-14T00:11:52;32.07;;;18.13;;
32455;SDS011;18912;43.270;27.942;2022-08-14T00:14:18;31.60;;;18.33;;
32455;SDS011;18912;43.270;27.942;2022-08-14T00:16:43;33.43;;;19.17;;
32455;SDS011;18912;43.270;27.942;2022-08-14T00:19:09;30.90;;;17.87;;
32455;SDS011;18912;43.270;27.942;2022-08-14T00:21:34;35.83;;;19.87;;
32455;SDS011;18912;43.270;27.942;2022-08-14T00:24:01;37.28;;;20.77;;
32455;SDS011;18912;43.270;27.942;2022-08-14T00:26:28;34.60;;;20.65;;
32455;SDS011;18912;43.270;27.942;2022-08-14T00:28:54;39.55;;;21.92;;
32455;SDS011;18912;43.270;27.942;2022-08-14T00:31:20;31.57;;;19.63;;
32455;SDS011;18912;43.270;27.942;2022-08-14T00:36:11;36.38;;;22.08;;
32455;SDS011;18912;43.270;27.942;2022-08-14T00:38:37;34.50;;;20.40;;
32455;SDS011;18912;43.270;27.942;2022-08-14T00:41:04;35.80;;;21.15;;
32455;SDS011;18912;43.270;27.942;2022-08-14T00:43:31;33.45;;;20.98;;
32455;SDS011;18912;43.270;27.942;2022-08-14T00:46:04;30.70;;;19.73;;
32455;SDS011;18912;43.270;27.942;2022-08-14T00:48:31;36.22;;;20.08;;
32455;SDS011;18912;43.270;27.942;2022-08-14T00:50:57;41.25;;;20.52;;
32455;SDS011;18912;43.270;27.942;2022-08-14T00:53:23;34.40;;;20.20;;
32455;SDS011;18912;43.270;27.942;2022-08-14T00:55:51;41.25;;;20.85;;
32455;SDS011;18912;43.270;27.942;2022-08-14T00:58:19;33.15;;;19.05;;
32455;SDS011;18912;43.270;27.942;2022-08-14T01:01:01;38.63;;;20.17;;
32455;SDS011;18912;43.270;27.942;2022-08-14T01:03:33;40.65;;;19.95;;
32455;SDS011;18912;43.270;27.942;2022-08-14T01:06:02;42.60;;;20.17;;
32455;SDS011;18912;43.270;27.942;2022-08-14T01:08:29;44.53;;;21.75;;
32455;SDS011;18912;43.270;27.942;2022-08-14T01:10:56;36.08;;;20.33;;
32455;SDS011;18912;43.270;27.942;2022-08-14T01:13:32;35.20;;;21.02;;
32455;SDS011;18912;43.270;27.942;2022-08-14T01:16:03;37.58;;;20.85;;
32455;SDS011;18912;43.270;27.942;2022-08-14T01:18:31;30.65;;;20.05;;
32455;SDS011;18912;43.270;27.942;2022-08-14T01:23:49;37.03;;;20.13;;
32455;SDS011;18912;43.270;27.942;2022-08-14T01:26:18;29.88;;;19.70;;
32455;SDS011;18912;43.270;27.942;2022-08-14T01:28:48;36.30;;;20.63;;
32455;SDS011;18912;43.270;27.942;2022-08-14T01:31:16;33.22;;;20.85;;
32455;SDS011;18912;43.270;27.942;2022-08-14T01:33:44;35.13;;;20.77;;
32455;SDS011;18912;43.270;27.942;2022-08-14T01:36:13;39.05;;;21.08;;
32455;SDS011;18912;43.270;27.942;2022-08-14T01:38:44;37.22;;;20.20;;
32455;SDS011;18912;43.270;27.942;2022-08-14T01:41:13;32.72;;;19.80;;
32455;SDS011;18912;43.270;27.942;2022-08-14T01:43:46;31.63;;;19.08;;
32455;SDS011;18912;43.270;27.942;2022-08-14T01:46:13;35.42;;;20.77;;
32455;SDS011;18912;43.270;27.942;2022-08-14T01:48:41;33.83;;;20.95;;
32455;SDS011;18912;43.270;27.942;2022-08-14T01:51:08;41.25;;;20.80;;
32455;SDS011;18912;43.270;27.942;2022-08-14T01:53:35;35.58;;;18.98;;
32455;SDS011;18912;43.270;27.942;2022-08-14T01:56:03;34.40;;;19.97;;
32455;SDS011;18912;43.270;27.942;2022-08-14T01:58:29;37.22;;;20.80;;
32455;SDS011;18912;43.270;27.942;2022-08-14T02:00:55;34.47;;;19.75;;
32455;SDS011;18912;43.270;27.942;2022-08-14T02:03:23;35.88;;;20.25;;
32455;SDS011;18912;43.270;27.942;2022-08-14T02:05:54;32.67;;;20.13;;
32455;SDS011;18912;43.270;27.942;2022-08-14T02:08:26;36.35;;;21.55;;
32455;SDS011;18912;43.270;27.942;2022-08-14T02:10:54;35.53;;;20.95;;
32455;SDS011;18912;43.270;27.942;2022-08-14T02:13:40;37.58;;;21.88;;
32455;SDS011;18912;43.270;27.942;2022-08-14T02:16:08;39.22;;;21.88;;
32455;SDS011;18912;43.270;27.942;2022-08-14T02:18:34;33.45;;;19.88;;
32455;SDS011;18912;43.270;27.942;2022-08-14T02:21:00;37.00;;;21.93;;
32455;SDS011;18912;43.270;27.942;2022-08-14T02:23:28;39.38;;;20.30;;
32455;SDS011;18912;43.270;27.942;2022-08-14T02:25:55;34.30;;;18.83;;
32455;SDS011;18912;43.270;27.942;2022-08-14T02:28:24;33.50;;;19.13;;
32455;SDS011;18912;43.270;27.942;2022-08-14T02:30:50;36.95;;;19.52;;
32455;SDS011;18912;43.270;27.942;2022-08-14T02:33:16;33.05;;;19.73;;
32455;SDS011;18912;43.270;27.942;2022-08-14T02:35:42;32.72;;;19.63;;
32455;SDS011;18912;43.270;27.942;2022-08-14T02:38:08;35.08;;;19.42;;
32455;SDS011;18912;43.270;27.942;2022-08-14T02:40:34;33.38;;;19.23;;
32455;SDS011;18912;43.270;27.942;2022-08-14T02:43:02;32.75;;;22.58;;
32455;SDS011;18912;43.270;27.942;2022-08-14T02:45:28;39.85;;;21.70;;
32455;SDS011;18912;43.270;27.942;2022-08-14T02:47:57;32.85;;;20.35;;
32455;SDS011;18912;43.270;27.942;2022-08-14T02:50:22;29.42;;;19.42;;
32455;SDS011;18912;43.270;27.942;2022-08-14T02:52:48;30.97;;;21.90;;
32455;SDS011;18912;43.270;27.942;2022-08-14T02:55:14;29.83;;;19.93;;
32455;SDS011;18912;43.270;27.942;2022-08-14T02:57:39;28.73;;;20.20;;
32455;SDS011;18912;43.270;27.942;2022-08-14T03:00:08;33.63;;;20.95;;
32455;SDS011;18912;43.270;27.942;2022-08-14T03:02:36;38.17;;;22.35;;
32455;SDS011;18912;43.270;27.942;2022-08-14T03:05:02;28.13;;;19.80;;
32455;SDS011;18912;43.270;27.942;2022-08-14T03:07:30;34.70;;;20.77;;
32455;SDS011;18912;43.270;27.942;2022-08-14T03:09:56;37.33;;;20.53;;
32455;SDS011;18912;43.270;27.942;2022-08-14T03:12:22;30.77;;;20.40;;
32455;SDS011;18912;43.270;27.942;2022-08-14T03:14:48;31.98;;;20.27;;
32455;SDS011;18912;43.270;27.942;2022-08-14T03:17:14;39.30;;;20.90;;
32455;SDS011;18912;43.270;27.942;2022-08-14T03:19:40;37.47;;;20.83;;
32455;SDS011;18912;43.270;27.942;2022-08-14T03:22:06;33.08;;;20.38;;
32455;SDS011;18912;43.270;27.942;2022-08-14T03:24:32;33.58;;;20.60;;
32455;SDS011;18912;43.270;27.942;2022-08-14T03:26:58;34.07;;;20.30;;
32455;SDS011;18912;43.270;27.942;2022-08-14T03:29:24;55.23;;;31.13;;
32455;SDS011;18912;43.270;27.942;2022-08-14T03:31:49;101.28;;;54.03;;
32455;SDS011;18912;43.270;27.942;2022-08-14T03:34:16;112.07;;;58.70;;
32455;SDS011;18912;43.270;27.942;2022-08-14T03:36:43;175.65;;;76.05;;
32455;SDS011;18912;43.270;27.942;2022-08-14T03:39:10;163.35;;;70.28;;
32455;SDS011;18912;43.270;27.942;2022-08-14T03:41:36;205.02;;;86.68;;
32455;SDS011;18912;43.270;27.942;2022-08-14T03:44:03;184.40;;;81.68;;
32455;SDS011;18912;43.270;27.942;2022-08-14T03:46:35;150.88;;;67.68;;
32455;SDS011;18912;43.270;27.942;2022-08-14T03:49:03;390.17;;;153.68;;
32455;SDS011;18912;43.270;27.942;2022-08-14T03:51:29;176.20;;;72.28;;
32455;SDS011;18912;43.270;27.942;2022-08-14T03:53:56;129.70;;;53.95;;
32455;SDS011;18912;43.270;27.942;2022-08-14T03:56:23;131.15;;;57.90;;
32455;SDS011;18912;43.270;27.942;2022-08-14T03:58:52;107.25;;;45.47;;
32455;SDS011;18912;43.270;27.942;2022-08-14T04:01:23;85.25;;;38.33;;
32455;SDS011;18912;43.270;27.942;2022-08-14T04:03:52;82.78;;;36.80;;
32455;SDS011;18912;43.270;27.942;2022-08-14T04:06:21;88.05;;;40.53;;
32455;SDS011;18912;43.270;27.942;2022-08-14T04:08:47;90.93;;;40.47;;
32455;SDS011;18912;43.270;27.942;2022-08-14T04:11:14;103.47;;;44.33;;
32455;SDS011;18912;43.270;27.942;2022-08-14T04:13:41;111.38;;;48.58;;
32455;SDS011;18912;43.270;27.942;2022-08-14T04:16:08;99.13;;;46.40;;
32455;SDS011;18912;43.270;27.942;2022-08-14T04:18:51;103.20;;;46.85;;
32455;SDS011;18912;43.270;27.942;2022-08-14T04:21:22;122.82;;;52.30;;
32455;SDS011;18912;43.270;27.942;2022-08-14T04:23:50;146.70;;;51.90;;
32455;SDS011;18912;43.270;27.942;2022-08-14T04:26:17;101.25;;;39.58;;
32455;SDS011;18912;43.270;27.942;2022-08-14T04:28:44;120.70;;;48.33;;
32455;SDS011;18912;43.270;27.942;2022-08-14T04:31:10;102.25;;;44.22;;
32455;SDS011;18912;43.270;27.942;2022-08-14T04:33:36;67.35;;;31.17;;
32455;SDS011;18912;43.270;27.942;2022-08-14T04:36:02;39.93;;;21.60;;
32455;SDS011;18912;43.270;27.942;2022-08-14T04:41:12;72.45;;;29.60;;
32455;SDS011;18912;43.270;27.942;2022-08-14T04:43:56;76.05;;;35.80;;
32455;SDS011;18912;43.270;27.942;2022-08-14T04:46:22;47.83;;;25.47;;
32455;SDS011;18912;43.270;27.942;2022-08-14T04:48:49;49.42;;;24.33;;
32455;SDS011;18912;43.270;27.942;2022-08-14T04:53:42;33.95;;;18.42;;
32455;SDS011;18912;43.270;27.942;2022-08-14T04:56:10;32.78;;;17.08;;
32455;SDS011;18912;43.270;27.942;2022-08-14T04:58:37;31.50;;;17.65;;
32455;SDS011;18912;43.270;27.942;2022-08-14T05:01:03;34.43;;;17.23;;
32455;SDS011;18912;43.270;27.942;2022-08-14T05:03:31;38.15;;;17.50;;
32455;SDS011;18912;43.270;27.942;2022-08-14T05:05:59;30.17;;;16.55;;
32455;SDS011;18912;43.270;27.942;2022-08-14T05:08:27;37.72;;;20.55;;
32455;SDS011;18912;43.270;27.942;2022-08-14T05:10:55;47.03;;;19.15;;
32455;SDS011;18912;43.270;27.942;2022-08-14T05:13:23;38.67;;;21.08;;
32455;SDS011;18912;43.270;27.942;2022-08-14T05:15:51;28.02;;;17.42;;
32455;SDS011;18912;43.270;27.942;2022-08-14T05:18:20;32.70;;;17.70;;
32455;SDS011;18912;43.270;27.942;2022-08-14T05:20:52;27.63;;;16.42;;
32455;SDS011;18912;43.270;27.942;2022-08-14T05:23:19;29.90;;;15.45;;
32455;SDS011;18912;43.270;27.942;2022-08-14T05:25:48;30.45;;;16.83;;
32455;SDS011;18912;43.270;27.942;2022-08-14T05:28:23;32.95;;;16.70;;
32455;SDS011;18912;43.270;27.942;2022-08-14T05:30:50;27.90;;;16.63;;
32455;SDS011;18912;43.270;27.942;2022-08-14T05:33:22;34.03;;;19.38;;
32455;SDS011;18912;43.270;27.942;2022-08-14T05:35:50;40.85;;;20.25;;
32455;SDS011;18912;43.270;27.942;2022-08-14T05:38:18;29.58;;;17.70;;
32455;SDS011;18912;43.270;27.942;2022-08-14T05:40:45;53.03;;;22.55;;
32455;SDS011;18912;43.270;27.942;2022-08-14T05:43:13;45.28;;;17.98;;
32455;SDS011;18912;43.270;27.942;2022-08-14T05:45:40;43.35;;;19.08;;
32455;SDS011;18912;43.270;27.942;2022-08-14T05:48:07;111.32;;;37.35;;
32455;SDS011;18912;43.270;27.942;2022-08-14T05:50:33;90.65;;;32.13;;
32455;SDS011;18912;43.270;27.942;2022-08-14T05:52:59;49.90;;;22.30;;
32455;SDS011;18912;43.270;27.942;2022-08-14T06:00:25;26.85;;;15.05;;
32455;SDS011;18912;43.270;27.942;2022-08-14T06:02:54;28.98;;;15.05;;
32455;SDS011;18912;43.270;27.942;2022-08-14T06:05:21;27.02;;;15.40;;
32455;SDS011;18912;43.270;27.942;2022-08-14T06:07:47;32.70;;;15.65;;
32455;SDS011;18912;43.270;27.942;2022-08-14T06:10:13;34.25;;;15.75;;
32455;SDS011;18912;43.270;27.942;2022-08-14T06:12:40;26.77;;;13.55;;
32455;SDS011;18912;43.270;27.942;2022-08-14T06:15:06;31.00;;;15.80;;
32455;SDS011;18912;43.270;27.942;2022-08-14T06:17:45;29.60;;;15.18;;
32455;SDS011;18912;43.270;27.942;2022-08-14T06:20:12;22.83;;;15.07;;
32455;SDS011;18912;43.270;27.942;2022-08-14T06:22:41;26.83;;;14.48;;
32455;SDS011;18912;43.270;27.942;2022-08-14T06:25:09;25.55;;;14.73;;
32455;SDS011;18912;43.270;27.942;2022-08-14T06:27:39;27.05;;;14.38;;
32455;SDS011;18912;43.270;27.942;2022-08-14T06:30:13;28.13;;;15.63;;
32455;SDS011;18912;43.270;27.942;2022-08-14T06:32:43;28.40;;;15.07;;
32455;SDS011;18912;43.270;27.942;2022-08-14T06:35:09;24.08;;;15.00;;
32455;SDS011;18912;43.270;27.942;2022-08-14T06:40:29;27.80;;;13.82;;
32455;SDS011;18912;43.270;27.942;2022-08-14T06:43:01;25.83;;;14.00;;
32455;SDS011;18912;43.270;27.942;2022-08-14T06:45:31;32.05;;;14.07;;
32455;SDS011;18912;43.270;27.942;2022-08-14T06:47:58;28.92;;;13.95;;
32455;SDS011;18912;43.270;27.942;2022-08-14T06:50:25;31.38;;;13.50;;
32455;SDS011;18912;43.270;27.942;2022-08-14T06:52:52;21.48;;;13.82;;
32455;SDS011;18912;43.270;27.942;2022-08-14T06:55:17;25.30;;;13.65;;
32455;SDS011;18912;43.270;27.942;2022-08-14T06:57:47;27.80;;;14.00;;
32455;SDS011;18912;43.270;27.942;2022-08-14T07:00:15;32.15;;;13.02;;
32455;SDS011;18912;43.270;27.942;2022-08-14T07:02:43;26.33;;;13.70;;
32455;SDS011;18912;43.270;27.942;2022-08-14T07:05:27;25.48;;;13.18;;
32455;SDS011;18912;43.270;27.942;2022-08-14T07:10:46;28.30;;;12.98;;
32455;SDS011;18912;43.270;27.942;2022-08-14T07:13:14;27.85;;;13.18;;
32455;SDS011;18912;43.270;27.942;2022-08-14T07:15:40;26.05;;;13.40;;
32455;SDS011;18912;43.270;27.942;2022-08-14T07:20:36;32.22;;;14.40;;
32455;SDS011;18912;43.270;27.942;2022-08-14T07:25:29;29.60;;;14.35;;
32455;SDS011;18912;43.270;27.942;2022-08-14T07:27:54;24.70;;;12.80;;
32455;SDS011;18912;43.270;27.942;2022-08-14T07:30:20;29.50;;;14.15;;
32455;SDS011;18912;43.270;27.942;2022-08-14T07:32:46;25.40;;;13.55;;
32455;SDS011;18912;43.270;27.942;2022-08-14T07:35:12;21.50;;;12.63;;
32455;SDS011;18912;43.270;27.942;2022-08-14T07:37:37;25.43;;;13.40;;
32455;SDS011;18912;43.270;27.942;2022-08-14T07:40:03;26.00;;;13.60;;
32455;SDS011;18912;43.270;27.942;2022-08-14T07:42:30;34.15;;;13.43;;
32455;SDS011;18912;43.270;27.942;2022-08-14T07:44:57;33.97;;;13.60;;
32455;SDS011;18912;43.270;27.942;2022-08-14T07:47:24;24.95;;;13.35;;
32455;SDS011;18912;43.270;27.942;2022-08-14T07:52:51;39.08;;;16.05;;
32455;SDS011;18912;43.270;27.942;2022-08-14T07:55:16;25.67;;;16.97;;
32455;SDS011;18912;43.270;27.942;2022-08-14T07:57:43;36.53;;;18.50;;
32455;SDS011;18912;43.270;27.942;2022-08-14T08:00:15;37.17;;;18.95;;
32455;SDS011;18912;43.270;27.942;2022-08-14T08:02:43;33.38;;;18.83;;
32455;SDS011;18912;43.270;27.942;2022-08-14T08:05:10;31.75;;;16.98;;
32455;SDS011;18912;43.270;27.942;2022-08-14T08:07:38;34.35;;;19.10;;
32455;SDS011;18912;43.270;27.942;2022-08-14T08:10:07;36.17;;;19.83;;
32455;SDS011;18912;43.270;27.942;2022-08-14T08:12:52;32.03;;;19.00;;
32455;SDS011;18912;43.270;27.942;2022-08-14T08:15:26;39.00;;;18.27;;
32455;SDS011;18912;43.270;27.942;2022-08-14T08:17:54;42.25;;;19.38;;
32455;SDS011;18912;43.270;27.942;2022-08-14T08:20:21;28.05;;;17.48;;
32455;SDS011;18912;43.270;27.942;2022-08-14T08:22:49;33.55;;;17.88;;
32455;SDS011;18912;43.270;27.942;2022-08-14T08:25:18;33.00;;;17.98;;
32455;SDS011;18912;43.270;27.942;2022-08-14T08:30:23;33.05;;;16.55;;
32455;SDS011;18912;43.270;27.942;2022-08-14T08:32:50;41.72;;;16.30;;
32455;SDS011;18912;43.270;27.942;2022-08-14T08:35:21;24.02;;;15.52;;
32455;SDS011;18912;43.270;27.942;2022-08-14T08:37:52;31.65;;;16.50;;
32455;SDS011;18912;43.270;27.942;2022-08-14T08:40:22;41.22;;;17.40;;
32455;SDS011;18912;43.270;27.942;2022-08-14T08:42:59;31.85;;;16.67;;
32455;SDS011;18912;43.270;27.942;2022-08-14T08:45:25;26.67;;;17.20;;
32455;SDS011;18912;43.270;27.942;2022-08-14T08:47:50;33.00;;;15.87;;
32455;SDS011;18912;43.270;27.942;2022-08-14T08:52:50;36.28;;;18.75;;
32455;SDS011;18912;43.270;27.942;2022-08-14T08:55:33;29.50;;;16.25;;
32455;SDS011;18912;43.270;27.942;2022-08-14T08:58:20;33.70;;;14.63;;
32455;SDS011;18912;43.270;27.942;2022-08-14T09:00:50;36.42;;;14.98;;
32455;SDS011;18912;43.270;27.942;2022-08-14T09:03:19;20.05;;;14.20;;
32455;SDS011;18912;43.270;27.942;2022-08-14T09:05:55;28.58;;;14.73;;
32455;SDS011;18912;43.270;27.942;2022-08-14T09:08:24;30.65;;;14.13;;
32455;SDS011;18912;43.270;27.942;2022-08-14T09:10:51;31.48;;;14.90;;
32455;SDS011;18912;43.270;27.942;2022-08-14T09:13:18;20.90;;;13.80;;
32455;SDS011;18912;43.270;27.942;2022-08-14T09:18:11;24.33;;;13.35;;
32455;SDS011;18912;43.270;27.942;2022-08-14T09:20:39;29.08;;;13.88;;
32455;SDS011;18912;43.270;27.942;2022-08-14T09:23:08;29.85;;;14.77;;
32455;SDS011;18912;43.270;27.942;2022-08-14T09:25:35;21.30;;;13.93;;
32455;SDS011;18912;43.270;27.942;2022-08-14T09:28:02;25.70;;;12.93;;
32455;SDS011;18912;43.270;27.942;2022-08-14T09:30:34;23.65;;;13.60;;
32455;SDS011;18912;43.270;27.942;2022-08-14T09:41:13;23.60;;;13.27;;
32455;SDS011;18912;43.270;27.942;2022-08-14T09:44:05;30.27;;;13.48;;
32455;SDS011;18912;43.270;27.942;2022-08-14T09:46:50;32.20;;;12.45;;
32455;SDS011;18912;43.270;27.942;2022-08-14T09:49:30;32.38;;;13.85;;
32455;SDS011;18912;43.270;27.942;2022-08-14T09:54:39;29.35;;;14.75;;
32455;SDS011;18912;43.270;27.942;2022-08-14T09:57:10;23.48;;;14.13;;
32455;SDS011;18912;43.270;27.942;2022-08-14T09:59:49;21.55;;;13.55;;
32455;SDS011;18912;43.270;27.942;2022-08-14T10:02:22;29.77;;;12.93;;
32455;SDS011;18912;43.270;27.942;2022-08-14T10:05:26;33.30;;;14.25;;
32455;SDS011;18912;43.270;27.942;2022-08-14T10:07:52;30.10;;;14.52;;
32455;SDS011;18912;43.270;27.942;2022-08-14T10:10:34;20.90;;;12.93;;
32455;SDS011;18912;43.270;27.942;2022-08-14T10:13:03;24.63;;;13.05;;
32455;SDS011;18912;43.270;27.942;2022-08-14T10:15:36;35.90;;;13.70;;
32455;SDS011;18912;43.270;27.942;2022-08-14T10:18:11;26.40;;;13.27;;
32455;SDS011;18912;43.270;27.942;2022-08-14T10:20:39;23.35;;;12.63;;
32455;SDS011;18912;43.270;27.942;2022-08-14T10:23:53;22.73;;;13.27;;
32455;SDS011;18912;43.270;27.942;2022-08-14T10:26:07;22.85;;;12.02;;
32455;SDS011;18912;43.270;27.942;2022-08-14T10:28:37;23.50;;;12.68;;
32455;SDS011;18912;43.270;27.942;2022-08-14T10:31:21;31.83;;;13.65;;
32455;SDS011;18912;43.270;27.942;2022-08-14T10:34:03;25.52;;;12.98;;
32455;SDS011;18912;43.270;27.942;2022-08-14T10:36:30;29.83;;;14.20;;
32455;SDS011;18912;43.270;27.942;2022-08-14T10:39:02;34.60;;;12.90;;
32455;SDS011;18912;43.270;27.942;2022-08-14T10:41:58;22.08;;;12.32;;
32455;SDS011;18912;43.270;27.942;2022-08-14T10:44:33;28.20;;;13.10;;
32455;SDS011;18912;43.270;27.942;2022-08-14T10:47:02;22.83;;;12.38;;
32455;SDS011;18912;43.270;27.942;2022-08-14T10:49:36;29.70;;;12.43;;
32455;SDS011;18912;43.270;27.942;2022-08-14T10:52:08;24.90;;;11.65;;
32455;SDS011;18912;43.270;27.942;2022-08-14T10:54:39;25.92;;;12.93;;
32455;SDS011;18912;43.270;27.942;2022-08-14T11:07:32;19.90;;;9.40;;
32455;SDS011;18912;43.270;27.942;2022-08-14T11:10:03;23.08;;;9.50;;
32455;SDS011;18912;43.270;27.942;2022-08-14T11:12:45;15.52;;;9.95;;
32455;SDS011;18912;43.270;27.942;2022-08-14T11:15:14;21.42;;;11.73;;
32455;SDS011;18912;43.270;27.942;2022-08-14T11:17:41;23.50;;;12.35;;
32455;SDS011;18912;43.270;27.942;2022-08-14T11:20:08;24.13;;;12.10;;
32455;SDS011;18912;43.270;27.942;2022-08-14T11:22:35;22.48;;;12.15;;
32455;SDS011;18912;43.270;27.942;2022-08-14T11:25:05;25.45;;;11.68;;
32455;SDS011;18912;43.270;27.942;2022-08-14T11:27:33;23.08;;;11.60;;
32455;SDS011;18912;43.270;27.942;2022-08-14T11:30:00;22.13;;;11.80;;
32455;SDS011;18912;43.270;27.942;2022-08-14T11:32:30;28.67;;;12.68;;
32455;SDS011;18912;43.270;27.942;2022-08-14T11:34:57;23.45;;;12.60;;
32455;SDS011;18912;43.270;27.942;2022-08-14T11:37:23;23.05;;;12.02;;
32455;SDS011;18912;43.270;27.942;2022-08-14T11:39:49;18.90;;;11.30;;
32455;SDS011;18912;43.270;27.942;2022-08-14T11:42:18;19.97;;;12.10;;
32455;SDS011;18912;43.270;27.942;2022-08-14T11:44:48;23.67;;;12.20;;
32455;SDS011;18912;43.270;27.942;2022-08-14T11:47:14;22.67;;;12.07;;
32455;SDS011;18912;43.270;27.942;2022-08-14T11:49:46;25.17;;;12.55;;
32455;SDS011;18912;43.270;27.942;2022-08-14T11:52:13;22.33;;;11.43;;
32455;SDS011;18912;43.270;27.942;2022-08-14T11:54:40;26.08;;;12.38;;
32455;SDS011;18912;43.270;27.942;2022-08-14T11:57:13;21.25;;;12.20;;
32455;SDS011;18912;43.270;27.942;2022-08-14T11:59:39;32.15;;;13.88;;
32455;SDS011;18912;43.270;27.942;2022-08-14T12:02:11;19.40;;;12.57;;
32455;SDS011;18912;43.270;27.942;2022-08-14T12:04:48;28.45;;;13.95;;
32455;SDS011;18912;43.270;27.942;2022-08-14T12:07:15;27.17;;;13.95;;
32455;SDS011;18912;43.270;27.942;2022-08-14T12:09:41;29.30;;;14.80;;
32455;SDS011;18912;43.270;27.942;2022-08-14T12:12:18;22.50;;;14.55;;
32455;SDS011;18912;43.270;27.942;2022-08-14T12:14:58;26.73;;;14.10;;
32455;SDS011;18912;43.270;27.942;2022-08-14T12:17:28;25.35;;;14.63;;
32455;SDS011;18912;43.270;27.942;2022-08-14T12:20:01;25.52;;;14.43;;
32455;SDS011;18912;43.270;27.942;2022-08-14T12:25:06;21.73;;;14.60;;
32455;SDS011;18912;43.270;27.942;2022-08-14T12:27:43;29.73;;;14.10;;
32455;SDS011;18912;43.270;27.942;2022-08-14T12:30:24;22.70;;;14.15;;
32455;SDS011;18912;43.270;27.942;2022-08-14T12:32:54;26.77;;;14.48;;
32455;SDS011;18912;43.270;27.942;2022-08-14T12:35:23;27.75;;;14.82;;
32455;SDS011;18912;43.270;27.942;2022-08-14T12:37:59;24.42;;;14.35;;
32455;SDS011;18912;43.270;27.942;2022-08-14T12:40:25;25.45;;;13.65;;
32455;SDS011;18912;43.270;27.942;2022-08-14T12:42:52;25.38;;;13.70;;
32455;SDS011;18912;43.270;27.942;2022-08-14T12:45:31;24.88;;;13.50;;
32455;SDS011;18912;43.270;27.942;2022-08-14T12:48:01;20.35;;;13.15;;
32455;SDS011;18912;43.270;27.942;2022-08-14T12:50:39;27.05;;;13.40;;
32455;SDS011;18912;43.270;27.942;2022-08-14T12:53:07;29.80;;;13.77;;
32455;SDS011;18912;43.270;27.942;2022-08-14T12:55:34;23.95;;;13.23;;
32455;SDS011;18912;43.270;27.942;2022-08-14T12:58:04;27.85;;;12.48;;
32455;SDS011;18912;43.270;27.942;2022-08-14T13:00:35;25.27;;;12.98;;
32455;SDS011;18912;43.270;27.942;2022-08-14T13:03:03;33.28;;;13.40;;
32455;SDS011;18912;43.270;27.942;2022-08-14T13:05:30;25.75;;;13.00;;
32455;SDS011;18912;43.270;27.942;2022-08-14T13:07:58;24.27;;;12.20;;
32455;SDS011;18912;43.270;27.942;2022-08-14T13:10:25;23.35;;;12.95;;
32455;SDS011;18912;43.270;27.942;2022-08-14T13:12:53;22.65;;;13.00;;
32455;SDS011;18912;43.270;27.942;2022-08-14T13:15:20;25.10;;;12.30;;
32455;SDS011;18912;43.270;27.942;2022-08-14T13:17:47;33.00;;;13.33;;
32455;SDS011;18912;43.270;27.942;2022-08-14T13:20:16;34.50;;;13.50;;
32455;SDS011;18912;43.270;27.942;2022-08-14T13:22:43;31.70;;;13.38;;
32455;SDS011;18912;43.270;27.942;2022-08-14T13:25:15;33.33;;;13.98;;
32455;SDS011;18912;43.270;27.942;2022-08-14T13:27:46;25.38;;;14.15;;
32455;SDS011;18912;43.270;27.942;2022-08-14T13:30:14;21.38;;;13.10;;
32455;SDS011;18912;43.270;27.942;2022-08-14T13:32:42;27.55;;;12.93;;
32455;SDS011;18912;43.270;27.942;2022-08-14T13:35:13;26.38;;;13.00;;
32455;SDS011;18912;43.270;27.942;2022-08-14T13:37:40;22.70;;;13.18;;
32455;SDS011;18912;43.270;27.942;2022-08-14T13:40:08;21.20;;;13.50;;
32455;SDS011;18912;43.270;27.942;2022-08-14T13:42:37;29.65;;;13.80;;
32455;SDS011;18912;43.270;27.942;2022-08-14T13:45:07;22.98;;;13.60;;
32455;SDS011;18912;43.270;27.942;2022-08-14T13:47:33;22.70;;;13.85;;
32455;SDS011;18912;43.270;27.942;2022-08-14T13:50:00;19.67;;;12.95;;
32455;SDS011;18912;43.270;27.942;2022-08-14T13:52:49;24.67;;;13.25;;
32455;SDS011;18912;43.270;27.942;2022-08-14T13:55:27;24.95;;;12.05;;
32455;SDS011;18912;43.270;27.942;2022-08-14T13:57:58;31.35;;;13.43;;
32455;SDS011;18912;43.270;27.942;2022-08-14T14:00:25;28.60;;;13.40;;
32455;SDS011;18912;43.270;27.942;2022-08-14T14:02:51;28.02;;;12.95;;
32455;SDS011;18912;43.270;27.942;2022-08-14T14:05:20;23.88;;;13.55;;
32455;SDS011;18912;43.270;27.942;2022-08-14T14:07:48;23.23;;;13.10;;
32455;SDS011;18912;43.270;27.942;2022-08-14T14:10:17;33.80;;;13.95;;
32455;SDS011;18912;43.270;27.942;2022-08-14T14:12:48;36.53;;;13.68;;
32455;SDS011;18912;43.270;27.942;2022-08-14T14:15:15;27.67;;;13.85;;
32455;SDS011;18912;43.270;27.942;2022-08-14T14:17:42;19.25;;;12.13;;
32455;SDS011;18912;43.270;27.942;2022-08-14T14:20:10;30.33;;;15.27;;
32455;SDS011;18912;43.270;27.942;2022-08-14T14:22:41;25.65;;;14.48;;
32455;SDS011;18912;43.270;27.942;2022-08-14T14:25:08;40.28;;;13.88;;
32455;SDS011;18912;43.270;27.942;2022-08-14T14:27:39;33.13;;;13.52;;
32455;SDS011;18912;43.270;27.942;2022-08-14T14:30:07;26.42;;;13.32;;
32455;SDS011;18912;43.270;27.942;2022-08-14T14:32:34;18.05;;;12.63;;
32455;SDS011;18912;43.270;27.942;2022-08-14T14:35:05;22.38;;;12.73;;
32455;SDS011;18912;43.270;27.942;2022-08-14T14:37:39;29.15;;;14.25;;
32455;SDS011;18912;43.270;27.942;2022-08-14T14:40:06;24.20;;;13.45;;
32455;SDS011;18912;43.270;27.942;2022-08-14T14:42:32;25.52;;;12.90;;
32455;SDS011;18912;43.270;27.942;2022-08-14T14:45:11;35.90;;;12.45;;
32455;SDS011;18912;43.270;27.942;2022-08-14T14:47:40;25.60;;;14.07;;
32455;SDS011;18912;43.270;27.942;2022-08-14T14:50:08;33.35;;;14.35;;
32455;SDS011;18912;43.270;27.942;2022-08-14T14:52:35;36.38;;;13.35;;
32455;SDS011;18912;43.270;27.942;2022-08-14T14:55:01;31.30;;;14.35;;
32455;SDS011;18912;43.270;27.942;2022-08-14T14:57:28;27.02;;;14.05;;
32455;SDS011;18912;43.270;27.942;2022-08-14T14:59:55;30.63;;;13.63;;
32455;SDS011;18912;43.270;27.942;2022-08-14T15:02:37;20.23;;;11.43;;
32455;SDS011;18912;43.270;27.942;2022-08-14T15:05:05;23.67;;;11.70;;
32455;SDS011;18912;43.270;27.942;2022-08-14T15:07:32;44.67;;;12.48;;
32455;SDS011;18912;43.270;27.942;2022-08-14T15:09:58;26.55;;;11.80;;
32455;SDS011;18912;43.270;27.942;2022-08-14T15:12:24;20.10;;;11.53;;
32455;SDS011;18912;43.270;27.942;2022-08-14T15:14:49;42.07;;;11.80;;
32455;SDS011;18912;43.270;27.942;2022-08-14T15:17:15;22.50;;;9.87;;
32455;SDS011;18912;43.270;27.942;2022-08-14T15:19:41;14.35;;;9.65;;
32455;SDS011;18912;43.270;27.942;2022-08-14T15:22:07;17.90;;;9.27;;